createdAt,value
2019-01-09T00:01:53.712Z,100216.23
2019-01-09T00:04:20.454Z,100225.91
2019-01-09T00:06:47.269Z,100229.05
2019-01-09T00:09:13.960Z,100228.06
2019-01-09T00:11:40.712Z,100225.47
2019-01-09T00:14:07.452Z,100217.33
2019-01-09T00:16:34.216Z,100209.13
2019-01-09T00:19:01.020Z,100205.01
2019-01-09T00:21:27.792Z,100196.16
2019-01-09T00:23:54.608Z,100194.41
2019-01-09T00:26:21.370Z,100194.25
2019-01-09T00:28:48.108Z,100200.22
2019-01-09T00:31:14.881Z,100209.97
2019-01-09T00:33:41.614Z,100211.68
2019-01-09T00:36:08.370Z,100216.41
2019-01-09T00:38:35.101Z,100220.44
2019-01-09T00:41:01.856Z,100219.98
2019-01-09T00:43:28.604Z,100214.86
2019-01-09T00:45:55.364Z,100211.58
2019-01-09T00:48:22.116Z,100204.28
2019-01-09T00:50:48.864Z,100204.35
2019-01-09T00:53:15.624Z,100199.27
2019-01-09T00:55:42.365Z,100205.02
2019-01-09T00:58:09.096Z,100205.64
2019-01-09T01:00:35.888Z,100202.66
2019-01-09T01:03:33.656Z,100199.06
2019-01-09T01:06:28.672Z,100204.45
2019-01-09T01:09:21.101Z,100197.28
2019-01-09T01:12:00.664Z,100195.78
2019-01-09T01:14:48.273Z,100191.11
2019-01-09T01:17:33.943Z,100201.69
2019-01-09T01:20:12.240Z,100199.79
2019-01-09T01:23:06.092Z,100216.16
2019-01-09T01:25:49.856Z,100198.50
2019-01-09T01:28:44.880Z,100206.30
2019-01-09T01:31:36.008Z,100195.83
2019-01-09T01:34:23.321Z,100202.47
2019-01-09T01:37:08.616Z,100185.96
2019-01-09T01:39:50.996Z,100186.35
2019-01-09T01:42:30.257Z,100190.20
2019-01-09T01:45:36.237Z,100193.53
2019-01-09T01:48:30.360Z,100202.99
2019-01-09T01:51:13.834Z,100199.50
2019-01-09T01:53:53.192Z,100188.28
2019-01-09T01:56:53.592Z,100193.42
2019-01-09T01:59:33.040Z,100187.81
2019-01-09T02:02:46.297Z,100192.60
2019-01-09T02:05:39.437Z,100179.74
2019-01-09T02:08:39.701Z,100180.03
2019-01-09T02:11:37.104Z,100174.03
2019-01-09T02:14:48.939Z,100175.60
2019-01-09T02:17:28.748Z,100182.50
2019-01-09T02:20:07.144Z,100187.92
2019-01-09T02:23:07.724Z,100181.75
2019-01-09T02:25:56.817Z,100181.95
2019-01-09T02:28:40.368Z,100180.59
2019-01-09T02:31:22.077Z,100186.56
2019-01-09T02:33:48.837Z,100181.95
2019-01-09T02:36:15.596Z,100176.81
2019-01-09T02:38:42.333Z,100175.06
2019-01-09T02:41:09.082Z,100185.70
2019-01-09T02:43:35.823Z,100167.81
2019-01-09T02:46:02.588Z,100161.10
2019-01-09T02:48:29.341Z,100164.31
2019-01-09T02:50:56.102Z,100165.59
2019-01-09T02:53:22.834Z,100181.14
2019-01-09T02:55:49.591Z,100183.95
2019-01-09T02:58:16.348Z,100171.71
2019-01-09T03:00:43.097Z,100175.57
2019-01-09T03:03:09.829Z,100169.71
2019-01-09T03:05:36.592Z,100163.75
2019-01-09T03:08:03.320Z,100152.84
2019-01-09T03:10:30.096Z,100145.98
2019-01-09T03:12:56.853Z,100150.53
2019-01-09T03:15:23.664Z,100160.75
2019-01-09T03:17:50.415Z,100150.56
2019-01-09T03:20:17.168Z,100142.85
2019-01-09T03:22:43.895Z,100149.53
2019-01-09T03:25:10.629Z,100143.31
2019-01-09T03:27:37.382Z,100137.95
2019-01-09T03:30:04.384Z,100133.60
2019-01-09T03:32:31.134Z,100153.28
2019-01-09T03:34:57.976Z,100142.53
2019-01-09T03:37:24.731Z,100136.89
2019-01-09T03:39:51.513Z,100131.17
2019-01-09T03:42:18.282Z,100134.92
2019-01-09T03:44:45.028Z,100125.67
2019-01-09T03:47:11.781Z,100129.13
2019-01-09T03:49:38.513Z,100122.95
2019-01-09T03:52:05.303Z,100113.99
2019-01-09T03:54:32.032Z,100117.92
2019-01-09T03:56:58.779Z,100120.13
2019-01-09T03:59:25.524Z,100110.59
2019-01-09T04:01:52.277Z,100114.45
2019-01-09T04:04:19.008Z,100115.02
2019-01-09T04:06:45.776Z,100108.70
2019-01-09T04:09:12.539Z,100110.67
2019-01-09T04:11:39.299Z,100112.42
2019-01-09T04:14:06.037Z,100107.20
2019-01-09T04:16:32.799Z,100113.06
2019-01-09T04:18:59.540Z,100113.06
2019-01-09T04:21:26.386Z,100109.52
2019-01-09T04:23:53.053Z,100099.28
2019-01-09T04:26:19.822Z,100097.45
2019-01-09T04:28:46.561Z,100105.06
2019-01-09T04:31:13.326Z,100098.91
2019-01-09T04:33:40.065Z,100096.66
2019-01-09T04:36:06.830Z,100094.34
2019-01-09T04:38:33.556Z,100090.45
2019-01-09T04:41:00.308Z,100090.85
2019-01-09T04:43:27.064Z,100085.64
2019-01-09T04:45:53.808Z,100077.86
2019-01-09T04:48:20.616Z,100074.31
2019-01-09T04:50:47.348Z,100070.00
2019-01-09T04:53:14.139Z,100071.85
2019-01-09T04:55:40.896Z,100062.22
2019-01-09T04:58:07.644Z,100057.30
2019-01-09T05:00:34.380Z,100068.92
2019-01-09T05:03:01.132Z,100061.22
2019-01-09T05:05:27.881Z,100070.67
2019-01-09T05:07:54.645Z,100052.83
2019-01-09T05:10:21.412Z,100056.00
2019-01-09T05:12:48.174Z,100056.36
2019-01-09T05:15:14.902Z,100054.47
2019-01-09T05:17:41.648Z,100054.11
2019-01-09T05:20:08.385Z,100054.69
2019-01-09T05:22:35.149Z,100061.47
2019-01-09T05:25:01.973Z,100055.75
2019-01-09T05:27:28.811Z,100056.00
2019-01-09T05:29:55.524Z,100059.36
2019-01-09T05:32:22.284Z,100061.61
2019-01-09T05:34:49.045Z,100065.00
2019-01-09T05:37:15.801Z,100060.89
2019-01-09T05:39:42.535Z,100063.57
2019-01-09T05:42:09.293Z,100063.57
2019-01-09T05:44:36.032Z,100066.64
2019-01-09T05:47:02.828Z,100077.89
2019-01-09T05:49:29.590Z,100075.52
2019-01-09T05:51:56.353Z,100077.95
2019-01-09T05:54:23.096Z,100078.56
2019-01-09T05:56:49.840Z,100076.92
2019-01-09T05:59:16.817Z,100061.22
2019-01-09T06:01:43.655Z,100075.17
2019-01-09T06:04:10.436Z,100078.42
2019-01-09T06:06:37.182Z,100067.00
2019-01-09T06:09:05.262Z,100078.27
2019-01-09T06:11:31.969Z,100074.56
2019-01-09T06:13:58.826Z,100077.75
2019-01-09T06:16:25.567Z,100068.48
2019-01-09T06:18:52.639Z,100070.12
2019-01-09T06:21:19.292Z,100082.47
2019-01-09T06:23:46.060Z,100082.13
2019-01-09T06:26:12.792Z,100077.34
2019-01-09T06:28:39.560Z,100077.59
2019-01-09T06:31:06.306Z,100081.65
2019-01-09T06:33:33.080Z,100090.90
2019-01-09T06:35:59.828Z,100091.29
2019-01-09T06:38:26.588Z,100100.77
2019-01-09T06:40:53.336Z,100107.08
2019-01-09T06:43:20.091Z,100100.84
2019-01-09T06:45:46.844Z,100102.72
2019-01-09T06:48:13.624Z,100109.29
2019-01-09T06:50:40.425Z,100111.72
2019-01-09T06:53:07.187Z,100106.26
2019-01-09T06:55:33.944Z,100107.49
2019-01-09T06:58:00.708Z,100110.91
2019-01-09T07:00:27.448Z,100112.92
2019-01-09T07:02:54.224Z,100123.94
2019-01-09T07:05:20.981Z,100122.91
2019-01-09T07:07:47.757Z,100127.94
2019-01-09T07:10:14.532Z,100130.21
2019-01-09T07:12:41.272Z,100136.81
2019-01-09T07:15:11.782Z,100138.56
2019-01-09T07:17:34.826Z,100132.27
2019-01-09T07:20:01.647Z,100138.27
2019-01-09T07:22:28.334Z,100146.03
2019-01-09T07:24:55.097Z,100148.69
2019-01-09T07:27:21.852Z,100149.30
2019-01-09T07:29:48.620Z,100146.67
2019-01-09T07:32:15.365Z,100146.61
2019-01-09T07:34:42.132Z,100152.47
2019-01-09T07:37:08.868Z,100145.55
2019-01-09T07:39:35.648Z,100151.44
2019-01-09T07:42:02.477Z,100150.80
2019-01-09T07:44:29.243Z,100142.98
2019-01-09T07:46:55.999Z,100155.10
2019-01-09T07:49:22.764Z,100155.80
2019-01-09T07:51:49.516Z,100138.17
2019-01-09T07:54:16.284Z,100145.17
2019-01-09T07:56:43.035Z,100154.67
2019-01-09T07:59:09.784Z,100155.83
2019-01-09T08:01:36.532Z,100158.29
2019-01-09T08:04:03.285Z,100164.66
2019-01-09T08:06:30.040Z,100161.57
2019-01-09T08:08:56.805Z,100162.38
2019-01-09T08:11:23.553Z,100149.52
2019-01-09T08:13:50.316Z,100161.23
2019-01-09T08:16:17.068Z,100159.09
2019-01-09T08:18:43.869Z,100153.67
2019-01-09T08:21:10.619Z,100169.28
2019-01-09T08:23:37.368Z,100160.55
2019-01-09T08:26:04.119Z,100160.70
2019-01-09T08:28:30.884Z,100172.02
2019-01-09T08:30:57.635Z,100185.52
2019-01-09T08:33:24.373Z,100193.38
2019-01-09T08:35:51.128Z,100197.37
2019-01-09T08:38:17.875Z,100187.72
2019-01-09T08:40:44.650Z,100185.72
2019-01-09T08:43:11.404Z,100180.59
2019-01-09T08:45:38.241Z,100179.37
2019-01-09T08:48:04.980Z,100190.06
2019-01-09T08:50:31.735Z,100187.23
2019-01-09T08:52:58.473Z,100190.88
2019-01-09T08:55:25.239Z,100199.03
2019-01-09T08:57:51.967Z,100194.89
2019-01-09T09:00:18.740Z,100207.55
2019-01-09T09:02:45.496Z,100202.70
2019-01-09T09:05:12.249Z,100204.22
2019-01-09T09:07:39.556Z,100199.75
2019-01-09T09:10:07.660Z,100198.21
2019-01-09T09:12:34.421Z,100198.28
2019-01-09T09:15:01.176Z,100202.89
2019-01-09T09:17:27.925Z,100208.03
2019-01-09T09:19:54.684Z,100209.97
2019-01-09T09:22:21.427Z,100214.37
2019-01-09T09:24:48.191Z,100214.97
2019-01-09T09:27:14.950Z,100223.16
2019-01-09T09:29:41.710Z,100224.80
2019-01-09T09:32:08.448Z,100230.16
2019-01-09T09:34:35.209Z,100228.41
2019-01-09T09:37:01.960Z,100233.81
2019-01-09T09:39:28.721Z,100234.03
2019-01-09T09:41:55.476Z,100228.78
2019-01-09T09:44:22.244Z,100240.25
2019-01-09T09:46:49.087Z,100248.48
2019-01-09T09:49:17.078Z,100252.33
2019-01-09T09:51:42.603Z,100257.32
2019-01-09T09:54:09.352Z,100254.03
2019-01-09T09:56:36.128Z,100251.37
2019-01-09T09:59:02.925Z,100249.63
2019-01-09T10:01:29.700Z,100259.13
2019-01-09T10:03:56.461Z,100262.17
2019-01-09T10:06:23.249Z,100250.70
2019-01-09T10:08:50.014Z,100245.16
2019-01-09T10:11:16.786Z,100250.48
2019-01-09T10:13:43.544Z,100243.48
2019-01-09T10:16:10.300Z,100247.80
2019-01-09T10:18:37.054Z,100240.30
2019-01-09T10:21:04.081Z,100257.45
2019-01-09T10:23:30.833Z,100243.08
2019-01-09T10:25:57.703Z,100239.50
2019-01-09T10:28:24.440Z,100236.87
2019-01-09T10:30:51.209Z,100238.14
2019-01-09T10:33:17.944Z,100240.52
2019-01-09T10:35:44.765Z,100235.44
2019-01-09T10:38:11.497Z,100234.67
2019-01-09T10:40:38.272Z,100234.27
2019-01-09T10:43:05.028Z,100238.02
2019-01-09T10:45:31.789Z,100235.03
2019-01-09T10:47:58.754Z,100238.07
2019-01-09T10:50:25.508Z,100224.84
2019-01-09T10:52:52.271Z,100226.48
2019-01-09T10:55:19.039Z,100238.79
2019-01-09T10:57:45.776Z,100232.42
2019-01-09T11:00:17.167Z,100234.28
2019-01-09T11:02:43.973Z,100238.97
2019-01-09T11:05:10.801Z,100238.21
2019-01-09T11:07:37.560Z,100233.75
2019-01-09T11:10:04.593Z,100223.34
2019-01-09T11:12:31.377Z,100222.98
2019-01-09T11:14:58.120Z,100225.63
2019-01-09T11:17:24.876Z,100215.94
2019-01-09T11:19:51.628Z,100213.22
2019-01-09T11:22:18.392Z,100214.38
2019-01-09T11:24:45.187Z,100214.03
2019-01-09T11:27:11.900Z,100207.60
2019-01-09T11:29:38.640Z,100213.08
2019-01-09T11:32:05.403Z,100211.48
2019-01-09T11:34:32.156Z,100208.56
2019-01-09T11:36:58.986Z,100203.30
2019-01-09T11:39:25.741Z,100197.95
2019-01-09T11:41:52.588Z,100197.32
2019-01-09T11:44:19.336Z,100197.11
2019-01-09T11:46:46.104Z,100197.08
2019-01-09T11:49:12.849Z,100204.05
2019-01-09T11:51:39.626Z,100196.02
2019-01-09T11:54:06.366Z,100186.88
2019-01-09T11:56:33.140Z,100183.17
2019-01-09T11:58:59.903Z,100170.22
2019-01-09T12:01:26.669Z,100169.03
2019-01-09T12:03:53.421Z,100171.27
2019-01-09T12:06:20.213Z,100168.12
2019-01-09T12:08:46.949Z,100163.69
2019-01-09T12:11:13.713Z,100162.24
2019-01-09T12:13:40.459Z,100157.23
2019-01-09T12:16:08.132Z,100157.23
2019-01-09T12:18:33.973Z,100160.92
2019-01-09T12:21:00.817Z,100160.65
2019-01-09T12:23:27.496Z,100151.90
2019-01-09T12:25:54.247Z,100161.84
2019-01-09T12:28:21.005Z,100155.98
2019-01-09T12:30:47.748Z,100159.41
2019-01-09T12:33:14.512Z,100147.98
2019-01-09T12:35:41.248Z,100163.78
2019-01-09T12:38:08.056Z,100173.34
2019-01-09T12:40:34.804Z,100155.37
2019-01-09T12:43:01.564Z,100150.70
2019-01-09T12:45:28.305Z,100157.85
2019-01-09T12:47:55.068Z,100153.78
2019-01-09T12:50:23.500Z,100162.25
2019-01-09T12:52:50.276Z,100164.56
2019-01-09T12:55:17.029Z,100168.84
2019-01-09T12:57:43.801Z,100165.31
2019-01-09T13:00:14.724Z,100168.00
2019-01-09T13:02:41.493Z,100162.28
2019-01-09T13:05:08.252Z,100144.59
2019-01-09T13:07:35.016Z,100158.20
2019-01-09T13:10:01.757Z,100177.93
2019-01-09T13:12:28.509Z,100180.50
2019-01-09T13:14:55.240Z,100175.14
2019-01-09T13:17:22.001Z,100191.11
2019-01-09T13:19:48.763Z,100187.91
2019-01-09T13:22:15.629Z,100182.76
2019-01-09T13:24:42.368Z,100183.08
2019-01-09T13:27:09.124Z,100196.37
2019-01-09T13:29:35.873Z,100183.86
2019-01-09T13:32:02.665Z,100174.85
2019-01-09T13:34:29.401Z,100182.50
2019-01-09T13:36:56.167Z,100163.06
2019-01-09T13:39:30.525Z,100183.03
2019-01-09T13:41:49.756Z,100168.73
2019-01-09T13:44:16.505Z,100159.63
2019-01-09T13:46:43.260Z,100165.35
2019-01-09T13:49:10.012Z,100169.58
2019-01-09T13:51:36.801Z,100122.62
2019-01-09T13:54:03.550Z,100156.78
2019-01-09T13:56:30.312Z,100166.73
2019-01-09T13:58:57.092Z,100147.83
2019-01-09T14:01:23.853Z,100158.38
2019-01-09T14:03:50.616Z,100151.83
2019-01-09T14:06:17.370Z,100190.67
2019-01-09T14:08:44.124Z,100189.39
2019-01-09T14:11:10.872Z,100182.27
2019-01-09T14:13:37.644Z,100179.03
2019-01-09T14:16:04.400Z,100176.02
2019-01-09T14:18:31.173Z,100183.30
2019-01-09T14:20:57.924Z,100204.61
2019-01-09T14:23:24.688Z,100182.56
2019-01-09T14:25:51.448Z,100198.02
2019-01-09T14:28:18.210Z,100192.02
2019-01-09T14:30:44.984Z,100194.42
2019-01-09T14:33:11.771Z,100200.26
2019-01-09T14:35:38.516Z,100201.55
2019-01-09T14:38:05.400Z,100194.29
2019-01-09T14:40:32.149Z,100203.16
2019-01-09T14:43:00.528Z,100204.13
2019-01-09T14:45:27.256Z,100215.27
2019-01-09T14:47:54.092Z,100223.23
2019-01-09T14:50:22.364Z,100224.27
2019-01-09T14:52:49.220Z,100226.48
2019-01-09T14:55:16.194Z,100242.58
2019-01-09T14:57:43.132Z,100239.36
2019-01-09T15:00:13.272Z,100240.36
2019-01-09T15:02:40.061Z,100251.02
2019-01-09T15:05:07.075Z,100236.80
2019-01-09T15:07:33.861Z,100240.25
2019-01-09T15:10:00.610Z,100238.97
2019-01-09T15:12:27.373Z,100247.91
2019-01-09T15:14:56.232Z,100233.29
2019-01-09T15:17:22.952Z,100235.76
2019-01-09T15:19:49.783Z,100232.93
2019-01-09T15:22:16.668Z,100241.65
2019-01-09T15:24:43.412Z,100243.22
2019-01-09T15:27:10.146Z,100239.47
2019-01-09T15:29:36.908Z,100246.11
2019-01-09T15:32:03.651Z,100251.88
2019-01-09T15:34:30.456Z,100246.16
2019-01-09T15:36:57.192Z,100253.16
2019-01-09T15:39:23.956Z,100259.12
2019-01-09T15:41:50.700Z,100263.92
2019-01-09T15:44:17.602Z,100269.42
2019-01-09T15:46:45.023Z,100271.03
2019-01-09T15:49:11.780Z,100274.94
2019-01-09T15:51:38.719Z,100273.25
2019-01-09T15:54:05.397Z,100278.17
2019-01-09T15:56:32.133Z,100293.97
2019-01-09T15:58:58.896Z,100304.42
2019-01-09T16:01:25.636Z,100287.52
2019-01-09T16:03:52.453Z,100308.50
2019-01-09T16:06:19.196Z,100310.45
2019-01-09T16:08:45.936Z,100308.45
2019-01-09T16:11:12.685Z,100307.72
2019-01-09T16:13:39.517Z,100302.55
2019-01-09T16:16:06.340Z,100312.10
2019-01-09T16:18:33.093Z,100302.48
2019-01-09T16:20:59.969Z,100319.61
2019-01-09T16:23:26.745Z,100312.41
2019-01-09T16:25:53.493Z,100331.89
2019-01-09T16:28:20.370Z,100323.04
2019-01-09T16:30:59.245Z,100339.05
2019-01-09T16:33:26.025Z,100339.66
2019-01-09T16:35:52.772Z,100340.73
2019-01-09T16:38:19.520Z,100344.89
2019-01-09T16:40:46.276Z,100347.09
2019-01-09T16:43:13.030Z,100336.97
2019-01-09T16:45:39.825Z,100346.67
2019-01-09T16:48:06.562Z,100347.34
2019-01-09T16:50:33.329Z,100350.06
2019-01-09T16:53:00.068Z,100358.69
2019-01-09T16:55:26.828Z,100363.75
2019-01-09T16:57:53.624Z,100365.22
2019-01-09T17:00:22.976Z,100373.07
2019-01-09T17:02:49.727Z,100371.23
2019-01-09T17:05:16.493Z,100378.69
2019-01-09T17:07:43.244Z,100388.98
2019-01-09T17:10:10.533Z,100380.70
2019-01-09T17:12:37.398Z,100382.70
2019-01-09T17:15:04.248Z,100386.52
2019-01-09T17:17:31.008Z,100379.27
2019-01-09T17:19:57.798Z,100378.49
2019-01-09T17:22:24.541Z,100371.54
2019-01-09T17:24:51.320Z,100383.45
2019-01-09T17:27:18.176Z,100384.82
2019-01-09T17:29:44.960Z,100384.73
2019-01-09T17:32:11.809Z,100396.03
2019-01-09T17:34:38.589Z,100390.27
2019-01-09T17:37:05.337Z,100394.52
2019-01-09T17:39:32.212Z,100392.71
2019-01-09T17:41:59.117Z,100400.96
2019-01-09T17:44:25.885Z,100394.18
2019-01-09T17:46:52.708Z,100400.78
2019-01-09T17:49:19.465Z,100390.81
2019-01-09T17:51:46.213Z,100392.28
2019-01-09T17:54:13.009Z,100391.41
2019-01-09T17:56:39.767Z,100390.53
2019-01-09T17:59:06.994Z,100395.53
2019-01-09T18:01:33.789Z,100397.97
2019-01-09T18:04:00.524Z,100398.92
2019-01-09T18:06:27.272Z,100409.36
2019-01-09T18:08:54.017Z,100410.47
2019-01-09T18:11:20.788Z,100409.09
2019-01-09T18:13:47.568Z,100407.28
2019-01-09T18:16:14.424Z,100417.61
2019-01-09T18:18:41.260Z,100421.55
2019-01-09T18:21:08.025Z,100423.48
2019-01-09T18:23:34.768Z,100431.91
2019-01-09T18:26:01.593Z,100433.05
2019-01-09T18:28:28.417Z,100441.72
2019-01-09T18:31:23.512Z,100430.81
2019-01-09T18:34:00.159Z,100440.61
2019-01-09T18:36:37.086Z,100444.05
2019-01-09T18:39:19.033Z,100447.22
2019-01-09T18:41:57.417Z,100450.46
2019-01-09T18:44:30.558Z,100452.08
2019-01-09T18:47:39.495Z,100455.39
2019-01-09T18:50:51.645Z,100454.41
2019-01-09T18:53:26.527Z,100459.22
2019-01-09T18:55:53.297Z,100454.46
2019-01-09T18:58:20.112Z,100464.98
2019-01-09T19:00:46.880Z,100459.76
2019-01-09T19:03:13.633Z,100464.86
2019-01-09T19:05:40.456Z,100463.66
2019-01-09T19:08:07.203Z,100462.10
2019-01-09T19:10:33.956Z,100468.80
2019-01-09T19:13:00.698Z,100470.53
2019-01-09T19:15:27.525Z,100473.66
2019-01-09T19:17:54.261Z,100480.14
2019-01-09T19:20:21.128Z,100482.73
2019-01-09T19:22:47.873Z,100484.02
2019-01-09T19:25:14.943Z,100488.45
2019-01-09T19:27:41.673Z,100486.72
2019-01-09T19:30:14.414Z,100481.34
2019-01-09T19:32:41.141Z,100489.22
2019-01-09T19:35:07.909Z,100487.66
2019-01-09T19:37:34.715Z,100486.47
2019-01-09T19:40:01.611Z,100477.09
2019-01-09T19:42:28.360Z,100481.03
2019-01-09T19:44:55.148Z,100494.33
2019-01-09T19:47:21.896Z,100493.41
2019-01-09T19:49:48.673Z,100500.84
2019-01-09T19:52:15.408Z,100494.09
2019-01-09T19:54:42.164Z,100501.42
2019-01-09T19:57:08.931Z,100504.81
2019-01-09T19:59:35.676Z,100508.30
2019-01-09T20:02:02.442Z,100516.37
2019-01-09T20:04:29.181Z,100525.78
2019-01-09T20:06:55.920Z,100523.76
2019-01-09T20:09:22.652Z,100516.23
2019-01-09T20:11:49.431Z,100529.72
2019-01-09T20:14:16.170Z,100522.38
2019-01-09T20:16:42.924Z,100524.03
2019-01-09T20:19:09.656Z,100522.05
2019-01-09T20:21:36.404Z,100529.80
2019-01-09T20:24:03.159Z,100538.11
2019-01-09T20:26:29.996Z,100537.15
2019-01-09T20:28:56.672Z,100541.09
2019-01-09T20:31:23.484Z,100539.98
2019-01-09T20:33:50.204Z,100544.66
2019-01-09T20:38:57.112Z,100545.49
2019-01-09T20:41:23.916Z,100552.17
2019-01-09T20:43:50.648Z,100554.48
2019-01-09T20:46:17.480Z,100558.14
2019-01-09T20:48:44.239Z,100547.95
2019-01-09T20:51:11.013Z,100559.05
2019-01-09T20:53:37.884Z,100543.83
2019-01-09T20:56:04.518Z,100550.72
2019-01-09T20:58:31.284Z,100547.55
2019-01-09T21:00:58.057Z,100558.91
2019-01-09T21:03:24.818Z,100563.95
2019-01-09T21:05:51.919Z,100550.70
2019-01-09T21:08:18.673Z,100562.97
2019-01-09T21:10:45.452Z,100565.34
2019-01-09T21:13:12.231Z,100565.36
2019-01-09T21:15:38.937Z,100569.02
2019-01-09T21:18:05.696Z,100566.16
2019-01-09T21:20:32.449Z,100570.55
2019-01-09T21:22:59.220Z,100572.84
2019-01-09T21:25:25.964Z,100574.12
2019-01-09T21:27:52.733Z,100573.86
2019-01-09T21:30:20.929Z,100581.47
2019-01-09T21:32:47.692Z,100584.61
2019-01-09T21:35:14.456Z,100593.05
2019-01-09T21:37:41.225Z,100596.20
2019-01-09T21:40:13.000Z,100595.70
2019-01-09T21:42:39.752Z,100595.77
2019-01-09T21:45:07.320Z,100599.89
2019-01-09T21:47:34.085Z,100590.74
2019-01-09T21:50:00.836Z,100596.98
2019-01-09T21:52:27.609Z,100605.68
2019-01-09T21:54:54.375Z,100605.07
2019-01-09T21:57:21.136Z,100613.80
2019-01-09T21:59:47.894Z,100613.18
2019-01-09T22:02:14.690Z,100616.29
2019-01-09T22:04:41.428Z,100625.27
2019-01-09T22:07:08.196Z,100629.16
2019-01-09T22:09:34.957Z,100621.08
2019-01-09T22:12:02.496Z,100625.21
2019-01-09T22:14:28.480Z,100629.46
2019-01-09T22:16:55.236Z,100629.52
2019-01-09T22:19:22.078Z,100631.14
2019-01-09T22:21:48.830Z,100624.22
2019-01-09T22:24:15.580Z,100621.38
2019-01-09T22:26:42.336Z,100615.63
2019-01-09T22:29:09.125Z,100619.10
2019-01-09T22:31:35.889Z,100619.97
2019-01-09T22:34:02.637Z,100622.41
2019-01-09T22:36:29.400Z,100625.71
2019-01-09T22:38:56.144Z,100622.44
2019-01-09T22:41:22.886Z,100629.95
2019-01-09T22:43:49.636Z,100631.07
2019-01-09T22:46:16.384Z,100634.36
2019-01-09T22:48:43.129Z,100638.48
2019-01-09T22:51:09.889Z,100638.29
2019-01-09T22:53:36.632Z,100643.05
2019-01-09T22:56:03.404Z,100638.00
2019-01-09T22:58:30.140Z,100643.59
2019-01-09T23:01:02.292Z,100639.30
2019-01-09T23:03:29.664Z,100641.70
2019-01-09T23:05:56.411Z,100642.41
2019-01-09T23:08:23.201Z,100647.79
2019-01-09T23:10:55.024Z,100642.86
2019-01-09T23:13:16.724Z,100641.52
2019-01-09T23:15:43.484Z,100642.48
2019-01-09T23:18:10.233Z,100649.56
2019-01-09T23:20:36.981Z,100648.11
2019-01-09T23:23:03.780Z,100656.86
2019-01-09T23:25:30.521Z,100655.66
2019-01-09T23:27:57.292Z,100655.03
2019-01-09T23:30:24.035Z,100647.29
2019-01-09T23:32:50.796Z,100652.46
2019-01-09T23:35:17.560Z,100663.69
2019-01-09T23:37:44.329Z,100659.83
2019-01-09T23:40:11.150Z,100663.19
2019-01-09T23:42:37.908Z,100666.86
2019-01-09T23:45:05.519Z,100667.40
2019-01-09T23:47:32.325Z,100666.28
2019-01-09T23:49:59.136Z,100668.85
2019-01-09T23:52:25.888Z,100675.88
2019-01-09T23:54:52.636Z,100671.94
2019-01-09T23:57:19.404Z,100674.66
2019-01-09T23:59:46.147Z,100677.80
